sensor_id;sensor_type;location;lat;lon;timestamp;pressure;altitude;pressure_sealevel;temperature;humidity
80504;BME280;69825;51.190;6.808;2023-07-02T00:02:07;100498.16;;;27.50;42.71
80504;BME280;69825;51.190;6.808;2023-07-02T00:04:32;100497.34;;;27.50;43.11
80504;BME280;69825;51.190;6.808;2023-07-02T00:06:58;100497.59;;;27.48;42.91
80504;BME280;69825;51.190;6.808;2023-07-02T00:09:23;100497.34;;;27.50;42.89
80504;BME280;69825;51.190;6.808;2023-07-02T00:11:49;100501.22;;;27.49;42.76
80504;BME280;69825;51.190;6.808;2023-07-02T00:14:14;100494.84;;;27.48;42.69
80504;BME280;69825;51.190;6.808;2023-07-02T00:16:43;100495.69;;;27.49;42.72
80504;BME280;69825;51.190;6.808;2023-07-02T00:19:09;100490.13;;;27.49;42.81
80504;BME280;69825;51.190;6.808;2023-07-02T00:21:34;100481.72;;;27.44;42.81
80504;BME280;69825;51.190;6.808;2023-07-02T00:24:02;100500.38;;;27.48;42.81
80504;BME280;69825;51.190;6.808;2023-07-02T00:26:28;100489.78;;;27.45;43.00
80504;BME280;69825;51.190;6.808;2023-07-02T00:28:54;100484.41;;;27.39;42.79
80504;BME280;69825;51.190;6.808;2023-07-02T00:31:20;100492.78;;;27.44;42.81
80504;BME280;69825;51.190;6.808;2023-07-02T00:33:45;100488.63;;;27.41;43.09
80504;BME280;69825;51.190;6.808;2023-07-02T00:36:11;100484.41;;;27.39;42.56
80504;BME280;69825;51.190;6.808;2023-07-02T00:38:41;100484.16;;;27.40;42.88
80504;BME280;69825;51.190;6.808;2023-07-02T00:41:07;100497.84;;;27.47;42.84
80504;BME280;69825;51.190;6.808;2023-07-02T00:43:32;100496.16;;;27.46;42.82
80504;BME280;69825;51.190;6.808;2023-07-02T00:45:58;100493.41;;;27.46;42.65
80504;BME280;69825;51.190;6.808;2023-07-02T00:48:23;100495.09;;;27.47;42.96
80504;BME280;69825;51.190;6.808;2023-07-02T00:50:48;100487.84;;;27.46;42.80
80504;BME280;69825;51.190;6.808;2023-07-02T00:53:14;100498.94;;;27.46;42.81
80504;BME280;69825;51.190;6.808;2023-07-02T00:55:39;100488.94;;;27.45;42.96
80504;BME280;69825;51.190;6.808;2023-07-02T00:58:05;100492.56;;;27.45;42.96
80504;BME280;69825;51.190;6.808;2023-07-02T01:00:30;100500.88;;;27.45;42.85
80504;BME280;69825;51.190;6.808;2023-07-02T01:02:56;100491.94;;;27.43;42.81
80504;BME280;69825;51.190;6.808;2023-07-02T01:05:28;100487.25;;;27.44;43.07
80504;BME280;69825;51.190;6.808;2023-07-02T01:08:01;100483.41;;;27.45;43.19
80504;BME280;69825;51.190;6.808;2023-07-02T01:10:26;100486.41;;;27.43;43.09
80504;BME280;69825;51.190;6.808;2023-07-02T01:12:52;100491.13;;;27.43;42.79
80504;BME280;69825;51.190;6.808;2023-07-02T01:15:18;100484.75;;;27.42;42.92
80504;BME280;69825;51.190;6.808;2023-07-02T01:17:43;100482.81;;;27.43;42.97
80504;BME280;69825;51.190;6.808;2023-07-02T01:20:10;100469.88;;;27.32;42.69
80504;BME280;69825;51.190;6.808;2023-07-02T01:22:36;100483.06;;;27.41;42.93
80504;BME280;69825;51.190;6.808;2023-07-02T01:25:02;100483.91;;;27.42;42.60
80504;BME280;69825;51.190;6.808;2023-07-02T01:27:28;100491.38;;;27.41;42.77
80504;BME280;69825;51.190;6.808;2023-07-02T01:29:55;100490.31;;;27.42;42.85
80504;BME280;69825;51.190;6.808;2023-07-02T01:32:21;100491.38;;;27.41;42.73
80504;BME280;69825;51.190;6.808;2023-07-02T01:34:47;100487.78;;;27.41;42.86
80504;BME280;69825;51.190;6.808;2023-07-02T01:37:18;100483.91;;;27.42;42.63
80504;BME280;69825;51.190;6.808;2023-07-02T01:39:44;100487.78;;;27.41;42.94
80504;BME280;69825;51.190;6.808;2023-07-02T01:42:11;100487.78;;;27.41;42.72
80504;BME280;69825;51.190;6.808;2023-07-02T01:44:37;100479.38;;;27.36;42.91
80504;BME280;69825;51.190;6.808;2023-07-02T01:47:03;100493.31;;;27.41;42.86
80504;BME280;69825;51.190;6.808;2023-07-02T01:49:28;100492.47;;;27.40;42.79
80504;BME280;69825;51.190;6.808;2023-07-02T01:51:55;100467.94;;;27.32;42.97
80504;BME280;69825;51.190;6.808;2023-07-02T01:54:23;100452.66;;;27.30;42.77
80504;BME280;69825;51.190;6.808;2023-07-02T01:56:49;100469.47;;;27.40;42.91
80504;BME280;69825;51.190;6.808;2023-07-02T01:59:14;100474.16;;;27.39;43.00
80504;BME280;69825;51.190;6.808;2023-07-02T02:01:40;100477.19;;;27.38;42.96
80504;BME280;69825;51.190;6.808;2023-07-02T02:04:06;100478.03;;;27.38;42.77
80504;BME280;69825;51.190;6.808;2023-07-02T02:06:32;100489.94;;;27.39;42.93
80504;BME280;69825;51.190;6.808;2023-07-02T02:08:57;100496.56;;;27.38;43.03
80504;BME280;69825;51.190;6.808;2023-07-02T02:11:22;100495.72;;;27.37;42.79
80504;BME280;69825;51.190;6.808;2023-07-02T02:13:49;100493.81;;;27.38;43.00
80504;BME280;69825;51.190;6.808;2023-07-02T02:16:14;100499.34;;;27.38;42.82
80504;BME280;69825;51.190;6.808;2023-07-02T02:18:39;100478.34;;;27.25;42.92
80504;BME280;69825;51.190;6.808;2023-07-02T02:21:05;100502.13;;;27.38;42.75
80504;BME280;69825;51.190;6.808;2023-07-02T02:23:30;100499.88;;;27.35;42.77
80504;BME280;69825;51.190;6.808;2023-07-02T02:25:56;100503.19;;;27.37;43.23
80504;BME280;69825;51.190;6.808;2023-07-02T02:28:21;100514.28;;;27.37;42.96
80504;BME280;69825;51.190;6.808;2023-07-02T02:30:46;100519.00;;;27.36;42.78
80504;BME280;69825;51.190;6.808;2023-07-02T02:33:12;100519.84;;;27.37;42.67
80504;BME280;69825;51.190;6.808;2023-07-02T02:35:37;100519.00;;;27.36;42.69
80504;BME280;69825;51.190;6.808;2023-07-02T02:38:03;100515.41;;;27.36;42.89
80504;BME280;69825;51.190;6.808;2023-07-02T02:40:29;100519.00;;;27.36;42.93
80504;BME280;69825;51.190;6.808;2023-07-02T02:42:54;100515.41;;;27.36;43.19
80504;BME280;69825;51.190;6.808;2023-07-02T02:45:20;100514.28;;;27.37;43.11
80504;BME280;69825;51.190;6.808;2023-07-02T02:47:46;100515.41;;;27.36;43.04
80504;BME280;69825;51.190;6.808;2023-07-02T02:50:12;100510.94;;;27.35;42.83
80504;BME280;69825;51.190;6.808;2023-07-02T02:52:38;100514.81;;;27.34;43.05
80504;BME280;69825;51.190;6.808;2023-07-02T02:55:06;100523.13;;;27.34;43.20
80504;BME280;69825;51.190;6.808;2023-07-02T02:57:32;100523.13;;;27.34;43.03
80504;BME280;69825;51.190;6.808;2023-07-02T02:59:57;100522.28;;;27.33;42.84
80504;BME280;69825;51.190;6.808;2023-07-02T03:02:22;100508.91;;;27.30;42.90
80504;BME280;69825;51.190;6.808;2023-07-02T03:04:48;100525.88;;;27.34;42.87
80504;BME280;69825;51.190;6.808;2023-07-02T03:07:15;100523.34;;;27.32;42.89
80504;BME280;69825;51.190;6.808;2023-07-02T03:09:40;100510.75;;;27.25;43.13
80504;BME280;69825;51.190;6.808;2023-07-02T03:12:06;100531.91;;;27.31;43.06
80504;BME280;69825;51.190;6.808;2023-07-02T03:14:31;100529.16;;;27.31;43.01
80504;BME280;69825;51.190;6.808;2023-07-02T03:16:57;100535.28;;;27.33;42.82
80504;BME280;69825;51.190;6.808;2023-07-02T03:19:22;100532.75;;;27.31;43.05
80504;BME280;69825;51.190;6.808;2023-07-02T03:21:47;100532.75;;;27.31;42.68
80504;BME280;69825;51.190;6.808;2023-07-02T03:24:13;100533.59;;;27.32;42.97
80504;BME280;69825;51.190;6.808;2023-07-02T03:26:39;100527.47;;;27.30;43.01
80504;BME280;69825;51.190;6.808;2023-07-02T03:29:06;100528.56;;;27.29;43.21
80504;BME280;69825;51.190;6.808;2023-07-02T03:31:31;100535.78;;;27.30;42.71
80504;BME280;69825;51.190;6.808;2023-07-02T03:33:57;100514.75;;;27.17;43.24
80504;BME280;69825;51.190;6.808;2023-07-02T03:36:22;100537.47;;;27.31;42.92
80504;BME280;69825;51.190;6.808;2023-07-02T03:38:47;100530.22;;;27.30;42.85
80504;BME280;69825;51.190;6.808;2023-07-02T03:41:13;100541.31;;;27.30;43.08
80504;BME280;69825;51.190;6.808;2023-07-02T03:43:38;100544.34;;;27.28;43.08
80504;BME280;69825;51.190;6.808;2023-07-02T03:46:03;100545.19;;;27.29;42.75
80504;BME280;69825;51.190;6.808;2023-07-02T03:48:29;100557.94;;;27.30;43.00
80504;BME280;69825;51.190;6.808;2023-07-02T03:50:54;100553.25;;;27.30;43.04
80504;BME280;69825;51.190;6.808;2023-07-02T03:53:19;100554.59;;;27.28;43.01
80504;BME280;69825;51.190;6.808;2023-07-02T03:55:45;100559.06;;;27.29;42.90
80504;BME280;69825;51.190;6.808;2023-07-02T03:58:10;100556.28;;;27.29;43.01
80504;BME280;69825;51.190;6.808;2023-07-02T04:00:35;100567.38;;;27.29;43.06
80504;BME280;69825;51.190;6.808;2023-07-02T04:03:01;100568.44;;;27.28;43.16
80504;BME280;69825;51.190;6.808;2023-07-02T04:05:27;100571.22;;;27.28;42.99
80504;BME280;69825;51.190;6.808;2023-07-02T04:07:52;100571.22;;;27.28;43.06
80504;BME280;69825;51.190;6.808;2023-07-02T04:10:17;100574.00;;;27.28;42.86
80504;BME280;69825;51.190;6.808;2023-07-02T04:12:43;100571.22;;;27.28;42.97
80504;BME280;69825;51.190;6.808;2023-07-02T04:15:09;100582.31;;;27.28;42.99
80504;BME280;69825;51.190;6.808;2023-07-02T04:17:35;100580.63;;;27.27;43.04
80504;BME280;69825;51.190;6.808;2023-07-02T04:20:01;100583.38;;;27.27;42.99
80504;BME280;69825;51.190;6.808;2023-07-02T04:22:28;100586.16;;;27.27;43.24
80504;BME280;69825;51.190;6.808;2023-07-02T04:24:53;100594.47;;;27.27;43.03
80504;BME280;69825;51.190;6.808;2023-07-02T04:27:19;100583.31;;;27.22;43.17
80504;BME280;69825;51.190;6.808;2023-07-02T04:29:44;100586.16;;;27.27;43.31
80504;BME280;69825;51.190;6.808;2023-07-02T04:32:10;100600.00;;;27.27;42.86
80504;BME280;69825;51.190;6.808;2023-07-02T04:34:35;100593.88;;;27.25;42.66
80504;BME280;69825;51.190;6.808;2023-07-02T04:37:04;100595.56;;;27.26;42.93
80504;BME280;69825;51.190;6.808;2023-07-02T04:39:30;100604.72;;;27.26;42.86
80504;BME280;69825;51.190;6.808;2023-07-02T04:41:55;100595.56;;;27.26;42.68
80504;BME280;69825;51.190;6.808;2023-07-02T04:44:20;100585.94;;;27.17;43.06
80504;BME280;69825;51.190;6.808;2023-07-02T04:46:47;100604.94;;;27.25;42.98
80504;BME280;69825;51.190;6.808;2023-07-02T04:49:13;100610.25;;;27.26;42.74
80504;BME280;69825;51.190;6.808;2023-07-02T04:51:39;100613.25;;;27.25;43.11
80504;BME280;69825;51.190;6.808;2023-07-02T04:54:05;100615.19;;;27.24;42.89
80504;BME280;69825;51.190;6.808;2023-07-02T04:56:30;100612.41;;;27.24;43.00
80504;BME280;69825;51.190;6.808;2023-07-02T04:58:55;100616.03;;;27.25;42.90
80504;BME280;69825;51.190;6.808;2023-07-02T05:01:21;100612.41;;;27.24;43.01
80504;BME280;69825;51.190;6.808;2023-07-02T05:03:46;100617.72;;;27.26;42.83
80504;BME280;69825;51.190;6.808;2023-07-02T05:06:11;100620.72;;;27.24;43.06
80504;BME280;69825;51.190;6.808;2023-07-02T05:08:37;100625.69;;;27.22;42.91
80504;BME280;69825;51.190;6.808;2023-07-02T05:11:02;100627.13;;;27.25;42.74
80504;BME280;69825;51.190;6.808;2023-07-02T05:13:27;100626.28;;;27.24;42.95
80504;BME280;69825;51.190;6.808;2023-07-02T05:15:53;100626.53;;;27.23;43.04
80504;BME280;69825;51.190;6.808;2023-07-02T05:18:18;100638.19;;;27.25;43.06
80504;BME280;69825;51.190;6.808;2023-07-02T05:20:43;100633.75;;;27.24;43.07
80504;BME280;69825;51.190;6.808;2023-07-02T05:23:09;100632.09;;;27.23;43.07
80504;BME280;69825;51.190;6.808;2023-07-02T05:25:34;100634.84;;;27.23;42.81
80504;BME280;69825;51.190;6.808;2023-07-02T05:27:59;100645.94;;;27.23;43.18
80504;BME280;69825;51.190;6.808;2023-07-02T05:30:25;100647.59;;;27.24;42.84
80504;BME280;69825;51.190;6.808;2023-07-02T05:32:50;100644.81;;;27.24;43.04
80504;BME280;69825;51.190;6.808;2023-07-02T05:35:15;100651.47;;;27.23;42.97
80504;BME280;69825;51.190;6.808;2023-07-02T05:37:41;100641.47;;;27.22;42.89
80504;BME280;69825;51.190;6.808;2023-07-02T05:40:07;100650.38;;;27.24;42.72
80504;BME280;69825;51.190;6.808;2023-07-02T05:42:32;100650.88;;;27.21;43.04
80504;BME280;69825;51.190;6.808;2023-07-02T05:44:57;100650.63;;;27.22;42.97
80504;BME280;69825;51.190;6.808;2023-07-02T05:47:23;100655.06;;;27.23;42.77
80504;BME280;69825;51.190;6.808;2023-07-02T05:49:48;100655.91;;;27.24;42.89
80504;BME280;69825;51.190;6.808;2023-07-02T05:52:13;100658.69;;;27.24;43.02
80504;BME280;69825;51.190;6.808;2023-07-02T05:54:40;100660.88;;;27.22;42.99
80504;BME280;69825;51.190;6.808;2023-07-02T05:57:06;100660.03;;;27.21;43.19
80504;BME280;69825;51.190;6.808;2023-07-02T05:59:31;100668.09;;;27.23;43.21
80504;BME280;69825;51.190;6.808;2023-07-02T06:01:57;100668.09;;;27.23;43.04
80504;BME280;69825;51.190;6.808;2023-07-02T06:04:22;100662.56;;;27.23;43.10
80504;BME280;69825;51.190;6.808;2023-07-02T06:06:47;100670.03;;;27.22;43.02
80504;BME280;69825;51.190;6.808;2023-07-02T06:09:12;100668.09;;;27.23;42.61
80504;BME280;69825;51.190;6.808;2023-07-02T06:11:38;100680.84;;;27.24;42.61
80504;BME280;69825;51.190;6.808;2023-07-02T06:14:03;100685.53;;;27.23;42.83
80504;BME280;69825;51.190;6.808;2023-07-02T06:16:29;100686.38;;;27.24;42.86
80504;BME280;69825;51.190;6.808;2023-07-02T06:18:54;100685.53;;;27.23;42.82
80504;BME280;69825;51.190;6.808;2023-07-02T06:21:19;100685.53;;;27.23;42.71
80504;BME280;69825;51.190;6.808;2023-07-02T06:23:45;100683.63;;;27.24;43.07
80504;BME280;69825;51.190;6.808;2023-07-02T06:26:11;100699.41;;;27.23;43.04
80504;BME280;69825;51.190;6.808;2023-07-02T06:28:36;100684.72;;;27.23;42.96
80504;BME280;69825;51.190;6.808;2023-07-02T06:31:02;100691.09;;;27.23;43.12
80504;BME280;69825;51.190;6.808;2023-07-02T06:33:27;100705.78;;;27.24;42.91
80504;BME280;69825;51.190;6.808;2023-07-02T06:35:53;100707.38;;;27.20;42.68
80504;BME280;69825;51.190;6.808;2023-07-02T06:38:18;100699.66;;;27.22;43.00
80504;BME280;69825;51.190;6.808;2023-07-02T06:40:43;100704.69;;;27.25;42.83
80504;BME280;69825;51.190;6.808;2023-07-02T06:43:09;100693.63;;;27.25;42.60
80504;BME280;69825;51.190;6.808;2023-07-02T06:45:34;100707.47;;;27.25;42.84
80504;BME280;69825;51.190;6.808;2023-07-02T06:48:00;100702.78;;;27.25;42.95
80504;BME280;69825;51.190;6.808;2023-07-02T06:50:25;100709.41;;;27.24;42.71
80504;BME280;69825;51.190;6.808;2023-07-02T06:52:50;100704.69;;;27.25;43.10
80504;BME280;69825;51.190;6.808;2023-07-02T06:55:16;100717.47;;;27.26;42.67
80504;BME280;69825;51.190;6.808;2023-07-02T06:57:45;100711.09;;;27.25;42.89
80504;BME280;69825;51.190;6.808;2023-07-02T07:00:12;100716.63;;;27.25;42.83
80504;BME280;69825;51.190;6.808;2023-07-02T07:02:37;100722.16;;;27.25;42.79
80504;BME280;69825;51.190;6.808;2023-07-02T07:05:03;100723.25;;;27.24;42.93
80504;BME280;69825;51.190;6.808;2023-07-02T07:07:29;100726.88;;;27.25;42.84
80504;BME280;69825;51.190;6.808;2023-07-02T07:09:55;100724.09;;;27.25;42.66
80504;BME280;69825;51.190;6.808;2023-07-02T07:12:20;100728.56;;;27.26;43.13
80504;BME280;69825;51.190;6.808;2023-07-02T07:14:46;100728.56;;;27.26;42.86
80504;BME280;69825;51.190;6.808;2023-07-02T07:17:11;100717.47;;;27.26;42.83
80504;BME280;69825;51.190;6.808;2023-07-02T07:19:36;100722.16;;;27.25;43.00
80504;BME280;69825;51.190;6.808;2023-07-02T07:22:02;100734.94;;;27.26;42.81
80504;BME280;69825;51.190;6.808;2023-07-02T07:24:27;100731.31;;;27.26;42.86
80504;BME280;69825;51.190;6.808;2023-07-02T07:26:52;100726.63;;;27.26;42.90
80504;BME280;69825;51.190;6.808;2023-07-02T07:29:18;100728.56;;;27.26;42.70
80504;BME280;69825;51.190;6.808;2023-07-02T07:31:43;100730.25;;;27.27;42.69
80504;BME280;69825;51.190;6.808;2023-07-02T07:34:09;100737.72;;;27.26;42.97
80504;BME280;69825;51.190;6.808;2023-07-02T07:36:34;100742.19;;;27.27;42.63
80504;BME280;69825;51.190;6.808;2023-07-02T07:39:00;100742.41;;;27.26;42.83
80504;BME280;69825;51.190;6.808;2023-07-02T07:41:25;100746.88;;;27.27;43.17
80504;BME280;69825;51.190;6.808;2023-07-02T07:43:51;100747.72;;;27.27;43.04
80504;BME280;69825;51.190;6.808;2023-07-02T07:46:16;100746.88;;;27.27;43.17
80504;BME280;69825;51.190;6.808;2023-07-02T07:48:41;100745.19;;;27.26;43.18
80504;BME280;69825;51.190;6.808;2023-07-02T07:51:07;100743.00;;;27.28;42.71
80504;BME280;69825;51.190;6.808;2023-07-02T07:53:32;100748.56;;;27.28;42.94
80504;BME280;69825;51.190;6.808;2023-07-02T07:55:57;100753.25;;;27.27;43.03
80504;BME280;69825;51.190;6.808;2023-07-02T07:58:23;100748.56;;;27.28;42.93
80504;BME280;69825;51.190;6.808;2023-07-02T08:00:49;100750.25;;;27.29;42.56
80504;BME280;69825;51.190;6.808;2023-07-02T08:03:14;100749.41;;;27.28;43.09
80504;BME280;69825;51.190;6.808;2023-07-02T08:05:39;100749.41;;;27.28;42.92
80504;BME280;69825;51.190;6.808;2023-07-02T08:08:05;100751.91;;;27.30;42.78
80504;BME280;69825;51.190;6.808;2023-07-02T08:10:30;100755.78;;;27.29;42.90
80504;BME280;69825;51.190;6.808;2023-07-02T08:12:56;100758.28;;;27.30;42.70
80504;BME280;69825;51.190;6.808;2023-07-02T08:15:21;100767.44;;;27.31;42.78
80504;BME280;69825;51.190;6.808;2023-07-02T08:17:47;100764.69;;;27.31;42.85
80504;BME280;69825;51.190;6.808;2023-07-02T08:20:12;100768.53;;;27.30;42.86
80504;BME280;69825;51.190;6.808;2023-07-02T08:22:39;100761.91;;;27.31;43.08
80504;BME280;69825;51.190;6.808;2023-07-02T08:25:05;100767.44;;;27.31;42.61
80504;BME280;69825;51.190;6.808;2023-07-02T08:27:30;100770.22;;;27.31;42.63
80504;BME280;69825;51.190;6.808;2023-07-02T08:29:56;100770.22;;;27.31;42.86
80504;BME280;69825;51.190;6.808;2023-07-02T08:32:21;100780.22;;;27.32;42.97
80504;BME280;69825;51.190;6.808;2023-07-02T08:34:46;100782.16;;;27.31;43.00
80504;BME280;69825;51.190;6.808;2023-07-02T08:37:12;100777.69;;;27.30;42.63
80504;BME280;69825;51.190;6.808;2023-07-02T08:39:37;100781.31;;;27.31;42.78
80504;BME280;69825;51.190;6.808;2023-07-02T08:42:05;100781.31;;;27.31;42.89
80504;BME280;69825;51.190;6.808;2023-07-02T08:44:30;100786.84;;;27.31;42.69
80504;BME280;69825;51.190;6.808;2023-07-02T08:46:56;100774.06;;;27.30;42.76
80504;BME280;69825;51.190;6.808;2023-07-02T08:49:22;100779.63;;;27.30;42.64
80504;BME280;69825;51.190;6.808;2023-07-02T08:51:48;100779.63;;;27.30;43.10
80504;BME280;69825;51.190;6.808;2023-07-02T08:54:14;100782.38;;;27.30;42.85
80504;BME280;69825;51.190;6.808;2023-07-02T08:56:40;100777.25;;;27.22;43.00
80504;BME280;69825;51.190;6.808;2023-07-02T08:59:09;100789.88;;;27.29;42.79
80504;BME280;69825;51.190;6.808;2023-07-02T09:01:47;100789.03;;;27.29;42.70
80504;BME280;69825;51.190;6.808;2023-07-02T09:04:23;100792.38;;;27.31;42.94
80504;BME280;69825;51.190;6.808;2023-07-02T09:06:51;100795.78;;;27.33;42.77
80504;BME280;69825;51.190;6.808;2023-07-02T09:09:16;100787.47;;;27.33;42.92
80504;BME280;69825;51.190;6.808;2023-07-02T09:11:51;100795.16;;;27.31;42.64
80504;BME280;69825;51.190;6.808;2023-07-02T09:14:30;100787.34;;;27.28;42.78
80504;BME280;69825;51.190;6.808;2023-07-02T09:17:08;100794.06;;;27.32;42.52
80504;BME280;69825;51.190;6.808;2023-07-02T09:19:35;100791.91;;;27.34;42.71
80504;BME280;69825;51.190;6.808;2023-07-02T09:22:01;100776.97;;;27.23;42.74
80504;BME280;69825;51.190;6.808;2023-07-02T09:24:28;100797.09;;;27.30;42.80
80504;BME280;69825;51.190;6.808;2023-07-02T09:26:56;100797.94;;;27.31;42.59
80504;BME280;69825;51.190;6.808;2023-07-02T09:29:32;100799.28;;;27.28;42.81
80504;BME280;69825;51.190;6.808;2023-07-02T09:32:03;100805.66;;;27.29;42.58
80504;BME280;69825;51.190;6.808;2023-07-02T09:34:39;100796.25;;;27.30;42.69
80504;BME280;69825;51.190;6.808;2023-07-02T09:37:07;100804.09;;;27.33;42.55
80504;BME280;69825;51.190;6.808;2023-07-02T09:39:33;100813.47;;;27.32;42.55
80504;BME280;69825;51.190;6.808;2023-07-02T09:42:01;100816.25;;;27.32;43.00
80504;BME280;69825;51.190;6.808;2023-07-02T09:44:30;100813.25;;;27.33;43.06
80504;BME280;69825;51.190;6.808;2023-07-02T09:49:24;100799.63;;;27.32;42.69
80504;BME280;69825;51.190;6.808;2023-07-02T09:51:50;100798.78;;;27.31;42.69
80504;BME280;69825;51.190;6.808;2023-07-02T09:54:16;100802.41;;;27.32;42.86
80504;BME280;69825;51.190;6.808;2023-07-02T09:56:46;100805.16;;;27.32;42.71
80504;BME280;69825;51.190;6.808;2023-07-02T09:59:11;100802.41;;;27.32;42.82
80504;BME280;69825;51.190;6.808;2023-07-02T10:01:37;100806.84;;;27.33;42.86
80504;BME280;69825;51.190;6.808;2023-07-02T10:04:18;100809.00;;;27.31;42.60
80504;BME280;69825;51.190;6.808;2023-07-02T10:06:46;100802.16;;;27.33;42.63
80504;BME280;69825;51.190;6.808;2023-07-02T10:09:12;100812.16;;;27.34;42.83
80504;BME280;69825;51.190;6.808;2023-07-02T10:11:37;100814.94;;;27.34;42.74
80504;BME280;69825;51.190;6.808;2023-07-02T10:14:03;100814.09;;;27.34;43.14
80504;BME280;69825;51.190;6.808;2023-07-02T10:16:28;100821.31;;;27.35;42.99
80504;BME280;69825;51.190;6.808;2023-07-02T10:19:08;100816.25;;;27.32;43.11
80504;BME280;69825;51.190;6.808;2023-07-02T10:21:33;100817.47;;;27.36;42.73
80504;BME280;69825;51.190;6.808;2023-07-02T10:24:09;100817.09;;;27.32;42.68
80504;BME280;69825;51.190;6.808;2023-07-02T10:26:34;100828.56;;;27.36;42.57
80504;BME280;69825;51.190;6.808;2023-07-02T10:29:00;100809.53;;;27.28;42.73
80504;BME280;69825;51.190;6.808;2023-07-02T10:31:25;100830.47;;;27.35;42.83
80504;BME280;69825;51.190;6.808;2023-07-02T10:33:51;100830.72;;;27.34;42.59
80504;BME280;69825;51.190;6.808;2023-07-02T10:36:20;100821.78;;;27.32;42.77
80504;BME280;69825;51.190;6.808;2023-07-02T10:38:46;100836.59;;;27.37;42.80
80504;BME280;69825;51.190;6.808;2023-07-02T10:41:12;100834.09;;;27.36;42.87
80504;BME280;69825;51.190;6.808;2023-07-02T10:43:37;100836.25;;;27.34;42.63
80504;BME280;69825;51.190;6.808;2023-07-02T10:46:03;100832.63;;;27.33;42.83
80504;BME280;69825;51.190;6.808;2023-07-02T10:48:30;100834.91;;;27.36;42.66
80504;BME280;69825;51.190;6.808;2023-07-02T10:50:56;100828.91;;;27.28;42.78
80504;BME280;69825;51.190;6.808;2023-07-02T10:53:21;100835.19;;;27.35;42.91
80504;BME280;69825;51.190;6.808;2023-07-02T10:55:56;100837.94;;;27.35;42.76
80504;BME280;69825;51.190;6.808;2023-07-02T10:58:23;100839.63;;;27.36;42.91
80504;BME280;69825;51.190;6.808;2023-07-02T11:00:50;100834.91;;;27.36;42.60
80504;BME280;69825;51.190;6.808;2023-07-02T11:03:26;100834.09;;;27.36;42.63
80504;BME280;69825;51.190;6.808;2023-07-02T11:05:52;100834.44;;;27.39;42.57
80504;BME280;69825;51.190;6.808;2023-07-02T11:08:18;100823.59;;;27.38;42.58
80504;BME280;69825;51.190;6.808;2023-07-02T11:10:44;100822.50;;;27.39;42.66
80504;BME280;69825;51.190;6.808;2023-07-02T11:13:18;100825.78;;;27.36;42.63
80504;BME280;69825;51.190;6.808;2023-07-02T11:15:44;100829.75;;;27.40;42.76
80504;BME280;69825;51.190;6.808;2023-07-02T11:18:15;100839.13;;;27.39;42.36
80504;BME280;69825;51.190;6.808;2023-07-02T11:20:41;100837.44;;;27.38;42.56
80504;BME280;69825;51.190;6.808;2023-07-02T11:23:21;100827.00;;;27.28;42.77
80504;BME280;69825;51.190;6.808;2023-07-02T11:25:59;100834.69;;;27.38;42.59
80504;BME280;69825;51.190;6.808;2023-07-02T11:28:25;100835.28;;;27.40;42.32
80504;BME280;69825;51.190;6.808;2023-07-02T11:30:51;100839.97;;;27.39;42.77
80504;BME280;69825;51.190;6.808;2023-07-02T11:33:16;100849.16;;;27.40;42.94
80504;BME280;69825;51.190;6.808;2023-07-02T11:35:42;100844.69;;;27.39;42.85
80504;BME280;69825;51.190;6.808;2023-07-02T11:38:09;100845.53;;;27.39;42.81
80504;BME280;69825;51.190;6.808;2023-07-02T11:40:36;100843.59;;;27.40;42.78
80504;BME280;69825;51.190;6.808;2023-07-02T11:43:01;100834.44;;;27.39;42.84
80504;BME280;69825;51.190;6.808;2023-07-02T11:45:26;100840.81;;;27.40;42.58
80504;BME280;69825;51.190;6.808;2023-07-02T11:47:52;100835.91;;;27.42;42.70
80504;BME280;69825;51.190;6.808;2023-07-02T11:50:17;100830.94;;;27.44;42.59
80504;BME280;69825;51.190;6.808;2023-07-02T11:52:42;100826.22;;;27.44;42.59
80504;BME280;69825;51.190;6.808;2023-07-02T11:55:08;100828.78;;;27.46;42.39
80504;BME280;69825;51.190;6.808;2023-07-02T11:57:33;100832.16;;;27.48;42.76
80504;BME280;69825;51.190;6.808;2023-07-02T11:59:58;100828.53;;;27.47;42.61
80504;BME280;69825;51.190;6.808;2023-07-02T12:02:25;100824.91;;;27.47;42.37
80504;BME280;69825;51.190;6.808;2023-07-02T12:04:50;100828.78;;;27.46;42.75
80504;BME280;69825;51.190;6.808;2023-07-02T12:07:15;100841.53;;;27.47;42.44
80504;BME280;69825;51.190;6.808;2023-07-02T12:09:41;100830.47;;;27.47;42.51
80504;BME280;69825;51.190;6.808;2023-07-02T12:12:06;100834.31;;;27.46;42.71
80504;BME280;69825;51.190;6.808;2023-07-02T12:14:32;100838.53;;;27.48;42.59
80504;BME280;69825;51.190;6.808;2023-07-02T12:16:57;100833.84;;;27.49;42.37
80504;BME280;69825;51.190;6.808;2023-07-02T12:19:23;100831.66;;;27.51;42.56
80504;BME280;69825;51.190;6.808;2023-07-02T12:21:48;100829.50;;;27.53;42.38
80504;BME280;69825;51.190;6.808;2023-07-02T12:24:13;100830.97;;;27.56;42.24
80504;BME280;69825;51.190;6.808;2023-07-02T12:26:42;100821.81;;;27.55;42.34
80504;BME280;69825;51.190;6.808;2023-07-02T12:29:07;100823.50;;;27.56;42.47
80504;BME280;69825;51.190;6.808;2023-07-02T12:31:33;100826.84;;;27.58;42.37
80504;BME280;69825;51.190;6.808;2023-07-02T12:33:58;100828.53;;;27.59;42.22
80504;BME280;69825;51.190;6.808;2023-07-02T12:36:24;100823.84;;;27.60;42.23
80504;BME280;69825;51.190;6.808;2023-07-02T12:38:49;100829.16;;;27.61;42.38
80504;BME280;69825;51.190;6.808;2023-07-02T12:41:14;100836.38;;;27.62;42.14
80504;BME280;69825;51.190;6.808;2023-07-02T12:43:40;100823.59;;;27.61;42.35
80504;BME280;69825;51.190;6.808;2023-07-02T12:46:06;100835.88;;;27.65;42.26
80504;BME280;69825;51.190;6.808;2023-07-02T12:48:31;100823.69;;;27.66;42.35